sensor_id;sensor_type;location;lat;lon;timestamp;P1;durP1;ratioP1;P2;durP2;ratioP2
52124;SDS011;38119;52.710;6.398;2023-08-06T00:00:19;16.17;;;10.02;;
52124;SDS011;38119;52.710;6.398;2023-08-06T00:02:45;12.48;;;9.70;;
52124;SDS011;38119;52.710;6.398;2023-08-06T00:05:11;13.10;;;9.85;;
52124;SDS011;38119;52.710;6.398;2023-08-06T00:07:37;15.85;;;9.73;;
52124;SDS011;38119;52.710;6.398;2023-08-06T00:10:05;14.25;;;10.10;;
52124;SDS011;38119;52.710;6.398;2023-08-06T00:12:31;12.55;;;10.10;;
52124;SDS011;38119;52.710;6.398;2023-08-06T00:14:58;12.25;;;9.10;;
52124;SDS011;38119;52.710;6.398;2023-08-06T00:17:29;14.75;;;9.73;;
52124;SDS011;38119;52.710;6.398;2023-08-06T00:19:55;12.00;;;9.82;;
52124;SDS011;38119;52.710;6.398;2023-08-06T00:22:20;13.23;;;10.18;;
52124;SDS011;38119;52.710;6.398;2023-08-06T00:24:46;11.68;;;9.30;;
52124;SDS011;38119;52.710;6.398;2023-08-06T00:27:12;11.38;;;9.18;;
52124;SDS011;38119;52.710;6.398;2023-08-06T00:29:37;14.68;;;9.80;;
52124;SDS011;38119;52.710;6.398;2023-08-06T00:32:06;14.82;;;9.65;;
52124;SDS011;38119;52.710;6.398;2023-08-06T00:34:32;11.77;;;9.65;;
52124;SDS011;38119;52.710;6.398;2023-08-06T00:37:00;11.43;;;9.20;;
52124;SDS011;38119;52.710;6.398;2023-08-06T00:39:26;11.77;;;9.45;;
52124;SDS011;38119;52.710;6.398;2023-08-06T00:41:51;12.05;;;9.05;;
52124;SDS011;38119;52.710;6.398;2023-08-06T00:44:17;10.55;;;8.82;;
52124;SDS011;38119;52.710;6.398;2023-08-06T00:46:43;15.07;;;9.40;;
52124;SDS011;38119;52.710;6.398;2023-08-06T00:49:08;15.20;;;9.77;;
52124;SDS011;38119;52.710;6.398;2023-08-06T00:51:34;12.98;;;9.45;;
52124;SDS011;38119;52.710;6.398;2023-08-06T00:54:00;12.43;;;9.00;;
52124;SDS011;38119;52.710;6.398;2023-08-06T00:56:27;12.73;;;9.30;;
52124;SDS011;38119;52.710;6.398;2023-08-06T00:58:54;14.07;;;9.15;;
52124;SDS011;38119;52.710;6.398;2023-08-06T01:01:20;13.30;;;9.55;;
52124;SDS011;38119;52.710;6.398;2023-08-06T01:03:46;12.90;;;9.77;;
52124;SDS011;38119;52.710;6.398;2023-08-06T01:06:12;15.15;;;10.20;;
52124;SDS011;38119;52.710;6.398;2023-08-06T01:11:26;13.40;;;9.70;;
52124;SDS011;38119;52.710;6.398;2023-08-06T01:14:21;12.57;;;9.15;;
52124;SDS011;38119;52.710;6.398;2023-08-06T01:16:55;11.27;;;9.20;;
52124;SDS011;38119;52.710;6.398;2023-08-06T01:19:23;11.25;;;9.15;;
52124;SDS011;38119;52.710;6.398;2023-08-06T01:21:49;13.10;;;9.93;;
52124;SDS011;38119;52.710;6.398;2023-08-06T01:24:16;12.55;;;9.15;;
52124;SDS011;38119;52.710;6.398;2023-08-06T01:26:42;14.65;;;9.82;;
52124;SDS011;38119;52.710;6.398;2023-08-06T01:29:25;12.18;;;9.35;;
52124;SDS011;38119;52.710;6.398;2023-08-06T01:31:55;11.57;;;9.43;;
52124;SDS011;38119;52.710;6.398;2023-08-06T01:34:24;11.25;;;9.18;;
52124;SDS011;38119;52.710;6.398;2023-08-06T01:36:53;14.48;;;9.27;;
52124;SDS011;38119;52.710;6.398;2023-08-06T01:39:19;14.70;;;9.68;;
52124;SDS011;38119;52.710;6.398;2023-08-06T01:41:46;11.98;;;9.50;;
52124;SDS011;38119;52.710;6.398;2023-08-06T01:44:13;16.20;;;9.95;;
52124;SDS011;38119;52.710;6.398;2023-08-06T01:46:40;13.23;;;10.15;;
52124;SDS011;38119;52.710;6.398;2023-08-06T01:49:05;16.25;;;10.60;;
52124;SDS011;38119;52.710;6.398;2023-08-06T01:51:31;15.90;;;10.65;;
52124;SDS011;38119;52.710;6.398;2023-08-06T01:53:56;15.68;;;10.63;;
52124;SDS011;38119;52.710;6.398;2023-08-06T01:56:22;13.18;;;10.40;;
52124;SDS011;38119;52.710;6.398;2023-08-06T01:58:48;16.20;;;9.90;;
52124;SDS011;38119;52.710;6.398;2023-08-06T02:01:13;14.90;;;10.93;;
52124;SDS011;38119;52.710;6.398;2023-08-06T02:03:39;15.05;;;10.30;;
52124;SDS011;38119;52.710;6.398;2023-08-06T02:06:05;12.70;;;10.45;;
52124;SDS011;38119;52.710;6.398;2023-08-06T02:08:30;15.25;;;10.85;;
52124;SDS011;38119;52.710;6.398;2023-08-06T02:10:56;14.57;;;11.05;;
52124;SDS011;38119;52.710;6.398;2023-08-06T02:13:23;14.90;;;10.73;;
52124;SDS011;38119;52.710;6.398;2023-08-06T02:15:49;15.55;;;10.90;;
52124;SDS011;38119;52.710;6.398;2023-08-06T02:18:15;13.93;;;11.13;;
52124;SDS011;38119;52.710;6.398;2023-08-06T02:20:41;15.93;;;11.13;;
52124;SDS011;38119;52.710;6.398;2023-08-06T02:23:07;16.88;;;11.70;;
52124;SDS011;38119;52.710;6.398;2023-08-06T02:25:33;13.52;;;10.95;;
52124;SDS011;38119;52.710;6.398;2023-08-06T02:28:02;15.52;;;10.77;;
52124;SDS011;38119;52.710;6.398;2023-08-06T02:30:28;14.93;;;10.50;;
52124;SDS011;38119;52.710;6.398;2023-08-06T02:32:53;16.60;;;9.80;;
52124;SDS011;38119;52.710;6.398;2023-08-06T02:35:20;18.70;;;9.95;;
52124;SDS011;38119;52.710;6.398;2023-08-06T02:37:45;17.23;;;11.30;;
52124;SDS011;38119;52.710;6.398;2023-08-06T02:40:11;14.23;;;10.18;;
52124;SDS011;38119;52.710;6.398;2023-08-06T02:42:36;13.60;;;10.68;;
52124;SDS011;38119;52.710;6.398;2023-08-06T02:45:03;12.90;;;10.18;;
52124;SDS011;38119;52.710;6.398;2023-08-06T02:47:29;13.18;;;9.98;;
52124;SDS011;38119;52.710;6.398;2023-08-06T02:49:56;14.82;;;10.30;;
52124;SDS011;38119;52.710;6.398;2023-08-06T02:52:22;12.95;;;10.20;;
52124;SDS011;38119;52.710;6.398;2023-08-06T02:54:48;15.25;;;9.65;;
52124;SDS011;38119;52.710;6.398;2023-08-06T02:57:13;15.95;;;10.35;;
52124;SDS011;38119;52.710;6.398;2023-08-06T02:59:39;13.23;;;9.90;;
52124;SDS011;38119;52.710;6.398;2023-08-06T03:02:05;12.82;;;9.43;;
52124;SDS011;38119;52.710;6.398;2023-08-06T03:04:31;12.57;;;10.23;;
52124;SDS011;38119;52.710;6.398;2023-08-06T03:06:57;14.05;;;9.50;;
52124;SDS011;38119;52.710;6.398;2023-08-06T03:09:22;16.52;;;9.68;;
52124;SDS011;38119;52.710;6.398;2023-08-06T03:11:48;14.75;;;9.75;;
52124;SDS011;38119;52.710;6.398;2023-08-06T03:14:13;12.95;;;9.65;;
52124;SDS011;38119;52.710;6.398;2023-08-06T03:16:39;13.57;;;10.40;;
52124;SDS011;38119;52.710;6.398;2023-08-06T03:19:05;13.25;;;10.32;;
52124;SDS011;38119;52.710;6.398;2023-08-06T03:21:31;14.07;;;10.02;;
52124;SDS011;38119;52.710;6.398;2023-08-06T03:23:57;13.10;;;9.85;;
52124;SDS011;38119;52.710;6.398;2023-08-06T03:26:22;13.30;;;9.48;;
52124;SDS011;38119;52.710;6.398;2023-08-06T03:28:48;12.88;;;9.32;;
52124;SDS011;38119;52.710;6.398;2023-08-06T03:31:13;12.75;;;9.23;;
52124;SDS011;38119;52.710;6.398;2023-08-06T03:33:39;13.35;;;9.52;;
52124;SDS011;38119;52.710;6.398;2023-08-06T03:36:05;12.40;;;9.18;;
52124;SDS011;38119;52.710;6.398;2023-08-06T03:38:31;12.73;;;9.10;;
52124;SDS011;38119;52.710;6.398;2023-08-06T03:40:58;14.93;;;9.48;;
52124;SDS011;38119;52.710;6.398;2023-08-06T03:43:24;11.90;;;9.15;;
52124;SDS011;38119;52.710;6.398;2023-08-06T03:45:52;13.35;;;9.02;;
52124;SDS011;38119;52.710;6.398;2023-08-06T03:48:17;14.50;;;9.68;;
52124;SDS011;38119;52.710;6.398;2023-08-06T03:50:43;12.07;;;9.00;;
52124;SDS011;38119;52.710;6.398;2023-08-06T03:53:09;12.05;;;9.45;;
52124;SDS011;38119;52.710;6.398;2023-08-06T03:55:34;11.57;;;9.60;;
52124;SDS011;38119;52.710;6.398;2023-08-06T03:58:00;14.35;;;9.77;;
52124;SDS011;38119;52.710;6.398;2023-08-06T04:00:25;13.40;;;9.65;;
52124;SDS011;38119;52.710;6.398;2023-08-06T04:02:51;14.60;;;9.70;;
52124;SDS011;38119;52.710;6.398;2023-08-06T04:05:17;12.25;;;9.23;;
52124;SDS011;38119;52.710;6.398;2023-08-06T04:07:43;12.88;;;9.55;;
52124;SDS011;38119;52.710;6.398;2023-08-06T04:10:09;11.90;;;9.30;;
52124;SDS011;38119;52.710;6.398;2023-08-06T04:12:34;16.83;;;10.35;;
52124;SDS011;38119;52.710;6.398;2023-08-06T04:15:03;18.33;;;10.45;;
52124;SDS011;38119;52.710;6.398;2023-08-06T04:17:29;14.20;;;9.45;;
52124;SDS011;38119;52.710;6.398;2023-08-06T04:19:55;12.40;;;8.98;;
52124;SDS011;38119;52.710;6.398;2023-08-06T04:22:24;13.48;;;9.48;;
52124;SDS011;38119;52.710;6.398;2023-08-06T04:24:52;13.10;;;9.98;;
52124;SDS011;38119;52.710;6.398;2023-08-06T04:27:19;13.23;;;9.55;;
52124;SDS011;38119;52.710;6.398;2023-08-06T04:29:45;13.55;;;9.35;;
52124;SDS011;38119;52.710;6.398;2023-08-06T04:32:12;14.73;;;10.25;;
52124;SDS011;38119;52.710;6.398;2023-08-06T04:34:38;12.18;;;10.13;;
52124;SDS011;38119;52.710;6.398;2023-08-06T04:37:04;12.48;;;10.10;;
52124;SDS011;38119;52.710;6.398;2023-08-06T04:39:29;13.23;;;10.07;;
52124;SDS011;38119;52.710;6.398;2023-08-06T04:41:56;13.82;;;10.13;;
52124;SDS011;38119;52.710;6.398;2023-08-06T04:44:24;12.32;;;9.57;;
52124;SDS011;38119;52.710;6.398;2023-08-06T04:46:50;13.68;;;10.20;;
52124;SDS011;38119;52.710;6.398;2023-08-06T04:49:16;13.60;;;9.90;;
52124;SDS011;38119;52.710;6.398;2023-08-06T04:51:42;13.93;;;10.25;;
52124;SDS011;38119;52.710;6.398;2023-08-06T04:54:08;14.23;;;10.00;;
52124;SDS011;38119;52.710;6.398;2023-08-06T04:56:34;13.07;;;10.00;;
52124;SDS011;38119;52.710;6.398;2023-08-06T04:59:00;13.55;;;10.07;;
52124;SDS011;38119;52.710;6.398;2023-08-06T05:01:26;14.68;;;9.90;;
52124;SDS011;38119;52.710;6.398;2023-08-06T05:03:51;14.35;;;10.30;;
52124;SDS011;38119;52.710;6.398;2023-08-06T05:06:17;16.27;;;10.20;;
52124;SDS011;38119;52.710;6.398;2023-08-06T05:08:43;13.07;;;9.93;;
52124;SDS011;38119;52.710;6.398;2023-08-06T05:11:09;11.95;;;9.80;;
52124;SDS011;38119;52.710;6.398;2023-08-06T05:13:34;13.48;;;10.18;;
52124;SDS011;38119;52.710;6.398;2023-08-06T05:16:00;12.27;;;9.70;;
52124;SDS011;38119;52.710;6.398;2023-08-06T05:18:26;14.40;;;10.10;;
52124;SDS011;38119;52.710;6.398;2023-08-06T05:20:58;13.57;;;9.93;;
52124;SDS011;38119;52.710;6.398;2023-08-06T05:23:24;12.95;;;9.98;;
52124;SDS011;38119;52.710;6.398;2023-08-06T05:25:49;14.05;;;10.10;;
52124;SDS011;38119;52.710;6.398;2023-08-06T05:28:15;13.15;;;9.73;;
52124;SDS011;38119;52.710;6.398;2023-08-06T05:30:41;12.20;;;9.23;;
52124;SDS011;38119;52.710;6.398;2023-08-06T05:33:10;16.73;;;10.25;;
52124;SDS011;38119;52.710;6.398;2023-08-06T05:35:35;13.50;;;9.73;;
52124;SDS011;38119;52.710;6.398;2023-08-06T05:38:02;14.13;;;9.85;;
52124;SDS011;38119;52.710;6.398;2023-08-06T05:40:27;13.38;;;9.10;;
52124;SDS011;38119;52.710;6.398;2023-08-06T05:42:53;11.05;;;9.10;;
52124;SDS011;38119;52.710;6.398;2023-08-06T05:45:20;12.15;;;9.75;;
52124;SDS011;38119;52.710;6.398;2023-08-06T05:47:47;10.38;;;9.20;;
52124;SDS011;38119;52.710;6.398;2023-08-06T05:50:13;13.48;;;9.80;;
52124;SDS011;38119;52.710;6.398;2023-08-06T05:52:38;11.65;;;9.02;;
52124;SDS011;38119;52.710;6.398;2023-08-06T05:55:04;13.27;;;9.45;;
52124;SDS011;38119;52.710;6.398;2023-08-06T05:57:30;13.48;;;9.80;;
52124;SDS011;38119;52.710;6.398;2023-08-06T05:59:56;12.80;;;10.50;;
52124;SDS011;38119;52.710;6.398;2023-08-06T06:02:21;13.23;;;10.30;;
52124;SDS011;38119;52.710;6.398;2023-08-06T06:04:47;15.27;;;9.52;;
52124;SDS011;38119;52.710;6.398;2023-08-06T06:07:13;12.35;;;9.90;;
52124;SDS011;38119;52.710;6.398;2023-08-06T06:09:39;11.93;;;10.00;;
52124;SDS011;38119;52.710;6.398;2023-08-06T06:12:05;12.45;;;10.52;;
52124;SDS011;38119;52.710;6.398;2023-08-06T06:14:31;12.02;;;10.27;;
52124;SDS011;38119;52.710;6.398;2023-08-06T06:16:57;12.57;;;10.35;;
52124;SDS011;38119;52.710;6.398;2023-08-06T06:19:24;14.20;;;10.15;;
52124;SDS011;38119;52.710;6.398;2023-08-06T06:21:49;12.77;;;10.60;;
52124;SDS011;38119;52.710;6.398;2023-08-06T06:24:15;12.05;;;10.38;;
52124;SDS011;38119;52.710;6.398;2023-08-06T06:26:40;12.80;;;10.63;;
52124;SDS011;38119;52.710;6.398;2023-08-06T06:29:06;11.35;;;10.13;;
52124;SDS011;38119;52.710;6.398;2023-08-06T06:31:32;14.52;;;10.43;;
52124;SDS011;38119;52.710;6.398;2023-08-06T06:33:57;12.77;;;10.85;;
52124;SDS011;38119;52.710;6.398;2023-08-06T06:36:23;16.30;;;10.85;;
52124;SDS011;38119;52.710;6.398;2023-08-06T06:38:49;15.32;;;12.40;;
52124;SDS011;38119;52.710;6.398;2023-08-06T06:41:14;11.93;;;10.32;;
52124;SDS011;38119;52.710;6.398;2023-08-06T06:43:40;16.65;;;11.70;;
52124;SDS011;38119;52.710;6.398;2023-08-06T06:46:06;17.20;;;12.05;;
52124;SDS011;38119;52.710;6.398;2023-08-06T06:48:32;14.30;;;11.00;;
52124;SDS011;38119;52.710;6.398;2023-08-06T06:50:58;15.48;;;11.63;;
52124;SDS011;38119;52.710;6.398;2023-08-06T06:53:24;13.00;;;10.85;;
52124;SDS011;38119;52.710;6.398;2023-08-06T06:55:53;14.30;;;11.70;;
52124;SDS011;38119;52.710;6.398;2023-08-06T06:58:19;14.10;;;10.88;;
52124;SDS011;38119;52.710;6.398;2023-08-06T07:00:45;14.47;;;11.80;;
52124;SDS011;38119;52.710;6.398;2023-08-06T07:03:12;16.10;;;12.85;;
52124;SDS011;38119;52.710;6.398;2023-08-06T07:05:37;14.88;;;11.77;;
52124;SDS011;38119;52.710;6.398;2023-08-06T07:08:03;14.85;;;12.55;;
52124;SDS011;38119;52.710;6.398;2023-08-06T07:10:29;17.35;;;13.10;;
52124;SDS011;38119;52.710;6.398;2023-08-06T07:12:54;16.50;;;13.10;;
52124;SDS011;38119;52.710;6.398;2023-08-06T07:15:20;14.80;;;12.45;;
52124;SDS011;38119;52.710;6.398;2023-08-06T07:17:45;14.38;;;12.48;;
52124;SDS011;38119;52.710;6.398;2023-08-06T07:20:11;14.45;;;12.95;;
52124;SDS011;38119;52.710;6.398;2023-08-06T07:22:37;16.40;;;12.55;;
52124;SDS011;38119;52.710;6.398;2023-08-06T07:25:02;16.13;;;13.52;;
52124;SDS011;38119;52.710;6.398;2023-08-06T07:27:28;15.68;;;12.57;;
52124;SDS011;38119;52.710;6.398;2023-08-06T07:29:54;14.77;;;11.93;;
52124;SDS011;38119;52.710;6.398;2023-08-06T07:32:20;15.25;;;12.77;;
52124;SDS011;38119;52.710;6.398;2023-08-06T07:34:45;13.73;;;11.90;;
52124;SDS011;38119;52.710;6.398;2023-08-06T07:37:11;13.85;;;11.98;;
52124;SDS011;38119;52.710;6.398;2023-08-06T07:39:36;14.68;;;13.10;;
52124;SDS011;38119;52.710;6.398;2023-08-06T07:42:04;14.30;;;12.80;;
52124;SDS011;38119;52.710;6.398;2023-08-06T07:44:32;15.43;;;13.07;;
52124;SDS011;38119;52.710;6.398;2023-08-06T07:46:57;16.23;;;13.30;;
52124;SDS011;38119;52.710;6.398;2023-08-06T07:49:23;16.67;;;14.88;;
52124;SDS011;38119;52.710;6.398;2023-08-06T07:51:49;15.32;;;13.45;;
52124;SDS011;38119;52.710;6.398;2023-08-06T07:54:16;14.88;;;13.27;;
52124;SDS011;38119;52.710;6.398;2023-08-06T07:56:42;14.98;;;13.30;;
52124;SDS011;38119;52.710;6.398;2023-08-06T07:59:08;15.35;;;13.30;;
52124;SDS011;38119;52.710;6.398;2023-08-06T08:01:34;15.13;;;13.00;;
52124;SDS011;38119;52.710;6.398;2023-08-06T08:04:00;15.25;;;12.32;;
52124;SDS011;38119;52.710;6.398;2023-08-06T08:06:25;16.60;;;12.85;;
52124;SDS011;38119;52.710;6.398;2023-08-06T08:08:51;14.95;;;13.35;;
52124;SDS011;38119;52.710;6.398;2023-08-06T08:11:17;15.63;;;13.75;;
52124;SDS011;38119;52.710;6.398;2023-08-06T08:13:43;14.80;;;13.20;;
52124;SDS011;38119;52.710;6.398;2023-08-06T08:16:09;16.13;;;13.90;;
52124;SDS011;38119;52.710;6.398;2023-08-06T08:18:35;17.25;;;15.00;;
52124;SDS011;38119;52.710;6.398;2023-08-06T08:21:01;16.65;;;14.82;;
52124;SDS011;38119;52.710;6.398;2023-08-06T08:23:26;18.10;;;14.93;;
52124;SDS011;38119;52.710;6.398;2023-08-06T08:25:52;17.27;;;14.93;;
52124;SDS011;38119;52.710;6.398;2023-08-06T08:28:17;20.17;;;15.23;;
52124;SDS011;38119;52.710;6.398;2023-08-06T08:30:43;18.15;;;14.88;;
52124;SDS011;38119;52.710;6.398;2023-08-06T08:33:09;17.75;;;13.55;;
52124;SDS011;38119;52.710;6.398;2023-08-06T08:35:35;15.15;;;13.40;;
52124;SDS011;38119;52.710;6.398;2023-08-06T08:38:01;15.43;;;13.32;;
52124;SDS011;38119;52.710;6.398;2023-08-06T08:40:29;14.90;;;12.85;;
52124;SDS011;38119;52.710;6.398;2023-08-06T08:42:57;14.88;;;12.40;;
52124;SDS011;38119;52.710;6.398;2023-08-06T08:45:26;15.35;;;12.05;;
52124;SDS011;38119;52.710;6.398;2023-08-06T08:47:54;16.17;;;11.50;;
52124;SDS011;38119;52.710;6.398;2023-08-06T08:50:20;13.40;;;11.48;;
52124;SDS011;38119;52.710;6.398;2023-08-06T08:52:47;15.98;;;11.65;;
52124;SDS011;38119;52.710;6.398;2023-08-06T08:55:15;13.02;;;11.05;;
52124;SDS011;38119;52.710;6.398;2023-08-06T08:57:42;13.50;;;10.65;;
52124;SDS011;38119;52.710;6.398;2023-08-06T09:00:08;11.98;;;10.70;;
52124;SDS011;38119;52.710;6.398;2023-08-06T09:02:34;11.90;;;10.48;;
52124;SDS011;38119;52.710;6.398;2023-08-06T09:05:03;11.10;;;9.98;;
52124;SDS011;38119;52.710;6.398;2023-08-06T09:07:41;11.50;;;10.30;;
52124;SDS011;38119;52.710;6.398;2023-08-06T09:10:11;12.43;;;9.73;;
52124;SDS011;38119;52.710;6.398;2023-08-06T09:12:38;10.93;;;9.70;;
52124;SDS011;38119;52.710;6.398;2023-08-06T09:15:05;11.05;;;9.27;;
52124;SDS011;38119;52.710;6.398;2023-08-06T09:17:31;14.18;;;9.65;;
52124;SDS011;38119;52.710;6.398;2023-08-06T09:19:56;10.68;;;9.32;;
52124;SDS011;38119;52.710;6.398;2023-08-06T09:22:22;11.13;;;8.80;;
52124;SDS011;38119;52.710;6.398;2023-08-06T09:24:48;10.35;;;8.52;;
52124;SDS011;38119;52.710;6.398;2023-08-06T09:27:14;9.57;;;8.43;;
52124;SDS011;38119;52.710;6.398;2023-08-06T09:29:41;12.05;;;9.00;;
52124;SDS011;38119;52.710;6.398;2023-08-06T09:32:10;11.85;;;8.95;;
52124;SDS011;38119;52.710;6.398;2023-08-06T09:34:39;9.55;;;8.43;;
52124;SDS011;38119;52.710;6.398;2023-08-06T09:37:08;10.13;;;8.60;;
52124;SDS011;38119;52.710;6.398;2023-08-06T09:39:34;11.10;;;9.00;;
52124;SDS011;38119;52.710;6.398;2023-08-06T09:42:01;10.23;;;8.75;;
52124;SDS011;38119;52.710;6.398;2023-08-06T09:44:27;10.13;;;8.85;;
52124;SDS011;38119;52.710;6.398;2023-08-06T09:46:55;12.85;;;8.88;;
52124;SDS011;38119;52.710;6.398;2023-08-06T09:49:25;10.23;;;8.15;;
52124;SDS011;38119;52.710;6.398;2023-08-06T09:51:52;9.02;;;8.02;;
52124;SDS011;38119;52.710;6.398;2023-08-06T09:54:22;9.82;;;8.10;;
52124;SDS011;38119;52.710;6.398;2023-08-06T09:56:49;10.57;;;7.82;;
52124;SDS011;38119;52.710;6.398;2023-08-06T09:59:15;8.73;;;7.72;;
52124;SDS011;38119;52.710;6.398;2023-08-06T10:01:43;9.32;;;7.90;;
52124;SDS011;38119;52.710;6.398;2023-08-06T10:04:09;8.77;;;7.45;;
52124;SDS011;38119;52.710;6.398;2023-08-06T10:06:37;9.82;;;7.95;;
52124;SDS011;38119;52.710;6.398;2023-08-06T10:09:03;8.68;;;6.97;;
52124;SDS011;38119;52.710;6.398;2023-08-06T10:11:29;8.98;;;6.85;;
52124;SDS011;38119;52.710;6.398;2023-08-06T10:14:08;9.05;;;6.95;;
52124;SDS011;38119;52.710;6.398;2023-08-06T10:16:39;9.98;;;6.85;;
52124;SDS011;38119;52.710;6.398;2023-08-06T10:19:05;7.97;;;7.05;;
52124;SDS011;38119;52.710;6.398;2023-08-06T10:21:34;7.53;;;6.22;;
52124;SDS011;38119;52.710;6.398;2023-08-06T10:23:59;7.18;;;6.40;;
52124;SDS011;38119;52.710;6.398;2023-08-06T10:26:27;8.57;;;6.63;;
52124;SDS011;38119;52.710;6.398;2023-08-06T10:28:53;8.57;;;7.57;;
52124;SDS011;38119;52.710;6.398;2023-08-06T10:31:20;7.65;;;6.53;;
52124;SDS011;38119;52.710;6.398;2023-08-06T10:34:05;10.05;;;6.82;;
52124;SDS011;38119;52.710;6.398;2023-08-06T10:36:32;10.32;;;6.55;;
52124;SDS011;38119;52.710;6.398;2023-08-06T10:38:58;6.47;;;5.88;;
52124;SDS011;38119;52.710;6.398;2023-08-06T10:41:27;7.80;;;6.07;;
52124;SDS011;38119;52.710;6.398;2023-08-06T10:44:06;6.20;;;5.60;;
52124;SDS011;38119;52.710;6.398;2023-08-06T10:46:36;9.50;;;6.18;;
52124;SDS011;38119;52.710;6.398;2023-08-06T10:49:03;8.07;;;5.93;;
52124;SDS011;38119;52.710;6.398;2023-08-06T10:51:29;9.95;;;6.60;;
52124;SDS011;38119;52.710;6.398;2023-08-06T10:53:55;7.03;;;5.60;;
52124;SDS011;38119;52.710;6.398;2023-08-06T10:56:23;7.32;;;5.80;;
52124;SDS011;38119;52.710;6.398;2023-08-06T10:58:58;6.00;;;5.38;;
52124;SDS011;38119;52.710;6.398;2023-08-06T11:03:53;6.47;;;5.05;;
52124;SDS011;38119;52.710;6.398;2023-08-06T11:06:20;6.47;;;5.28;;
52124;SDS011;38119;52.710;6.398;2023-08-06T11:08:48;5.97;;;4.95;;
52124;SDS011;38119;52.710;6.398;2023-08-06T11:11:18;5.68;;;4.80;;
52124;SDS011;38119;52.710;6.398;2023-08-06T11:13:48;6.00;;;4.55;;
52124;SDS011;38119;52.710;6.398;2023-08-06T11:16:24;5.40;;;4.32;;
52124;SDS011;38119;52.710;6.398;2023-08-06T11:18:50;5.78;;;4.32;;
52124;SDS011;38119;52.710;6.398;2023-08-06T11:21:19;4.90;;;4.13;;
52124;SDS011;38119;52.710;6.398;2023-08-06T11:23:46;5.65;;;4.20;;
52124;SDS011;38119;52.710;6.398;2023-08-06T11:26:18;5.35;;;3.90;;
52124;SDS011;38119;52.710;6.398;2023-08-06T11:28:48;5.07;;;3.97;;
52124;SDS011;38119;52.710;6.398;2023-08-06T11:53:19;4.38;;;2.90;;
52124;SDS011;38119;52.710;6.398;2023-08-06T11:55:44;3.83;;;2.97;;
52124;SDS011;38119;52.710;6.398;2023-08-06T11:58:10;3.90;;;2.80;;
52124;SDS011;38119;52.710;6.398;2023-08-06T12:00:37;4.50;;;3.00;;
52124;SDS011;38119;52.710;6.398;2023-08-06T12:03:04;3.17;;;2.50;;
52124;SDS011;38119;52.710;6.398;2023-08-06T12:05:30;3.30;;;2.47;;
52124;SDS011;38119;52.710;6.398;2023-08-06T12:07:59;3.13;;;2.30;;
52124;SDS011;38119;52.710;6.398;2023-08-06T12:10:26;5.03;;;2.75;;
52124;SDS011;38119;52.710;6.398;2023-08-06T12:12:53;3.42;;;3.08;;
52124;SDS011;38119;52.710;6.398;2023-08-06T12:15:20;3.83;;;2.45;;
52124;SDS011;38119;52.710;6.398;2023-08-06T12:17:45;3.70;;;2.80;;
52124;SDS011;38119;52.710;6.398;2023-08-06T12:20:12;3.65;;;2.80;;
52124;SDS011;38119;52.710;6.398;2023-08-06T12:22:38;3.78;;;2.50;;
52124;SDS011;38119;52.710;6.398;2023-08-06T12:27:35;4.03;;;2.72;;
52124;SDS011;38119;52.710;6.398;2023-08-06T12:30:02;3.53;;;2.40;;
52124;SDS011;38119;52.710;6.398;2023-08-06T12:32:28;4.18;;;2.83;;
52124;SDS011;38119;52.710;6.398;2023-08-06T12:34:54;4.78;;;3.35;;
52124;SDS011;38119;52.710;6.398;2023-08-06T12:37:20;5.43;;;2.80;;
52124;SDS011;38119;52.710;6.398;2023-08-06T12:39:45;4.82;;;3.15;;
52124;SDS011;38119;52.710;6.398;2023-08-06T12:42:11;2.90;;;2.60;;
52124;SDS011;38119;52.710;6.398;2023-08-06T12:44:37;5.50;;;2.50;;
52124;SDS011;38119;52.710;6.398;2023-08-06T12:47:02;3.95;;;2.63;;
52124;SDS011;38119;52.710;6.398;2023-08-06T12:49:28;4.43;;;2.92;;
52124;SDS011;38119;52.710;6.398;2023-08-06T12:51:55;5.00;;;2.88;;
52124;SDS011;38119;52.710;6.398;2023-08-06T12:54:21;4.93;;;3.03;;
52124;SDS011;38119;52.710;6.398;2023-08-06T12:56:47;3.00;;;2.38;;
52124;SDS011;38119;52.710;6.398;2023-08-06T12:59:16;4.88;;;2.75;;
52124;SDS011;38119;52.710;6.398;2023-08-06T13:01:42;3.60;;;2.88;;
52124;SDS011;38119;52.710;6.398;2023-08-06T13:04:09;5.28;;;2.95;;
52124;SDS011;38119;52.710;6.398;2023-08-06T13:06:34;4.63;;;3.15;;
52124;SDS011;38119;52.710;6.398;2023-08-06T13:09:02;4.22;;;2.92;;
52124;SDS011;38119;52.710;6.398;2023-08-06T13:11:29;5.40;;;2.97;;
52124;SDS011;38119;52.710;6.398;2023-08-06T13:13:58;5.63;;;3.10;;
52124;SDS011;38119;52.710;6.398;2023-08-06T13:16:28;5.22;;;3.30;;
52124;SDS011;38119;52.710;6.398;2023-08-06T13:18:54;5.38;;;3.30;;
52124;SDS011;38119;52.710;6.398;2023-08-06T13:21:20;5.35;;;3.13;;
52124;SDS011;38119;52.710;6.398;2023-08-06T13:23:45;4.43;;;3.10;;
52124;SDS011;38119;52.710;6.398;2023-08-06T13:26:12;3.63;;;3.10;;
52124;SDS011;38119;52.710;6.398;2023-08-06T13:28:38;5.60;;;3.72;;
52124;SDS011;38119;52.710;6.398;2023-08-06T13:31:04;6.90;;;3.50;;
52124;SDS011;38119;52.710;6.398;2023-08-06T13:33:30;5.32;;;3.10;;
52124;SDS011;38119;52.710;6.398;2023-08-06T13:35:55;3.88;;;2.95;;
52124;SDS011;38119;52.710;6.398;2023-08-06T13:38:21;6.93;;;3.55;;
52124;SDS011;38119;52.710;6.398;2023-08-06T13:40:46;5.53;;;3.30;;
52124;SDS011;38119;52.710;6.398;2023-08-06T13:43:13;4.63;;;3.45;;
52124;SDS011;38119;52.710;6.398;2023-08-06T13:45:41;5.40;;;3.40;;
52124;SDS011;38119;52.710;6.398;2023-08-06T13:48:06;6.90;;;3.30;;
52124;SDS011;38119;52.710;6.398;2023-08-06T13:50:32;7.22;;;3.92;;
52124;SDS011;38119;52.710;6.398;2023-08-06T13:52:58;12.00;;;4.55;;
52124;SDS011;38119;52.710;6.398;2023-08-06T13:55:23;7.47;;;4.00;;
52124;SDS011;38119;52.710;6.398;2023-08-06T13:57:49;6.95;;;3.75;;
52124;SDS011;38119;52.710;6.398;2023-08-06T14:00:15;5.90;;;3.10;;
52124;SDS011;38119;52.710;6.398;2023-08-06T14:02:40;5.40;;;3.75;;
52124;SDS011;38119;52.710;6.398;2023-08-06T14:05:08;6.68;;;3.92;;
52124;SDS011;38119;52.710;6.398;2023-08-06T14:07:34;8.95;;;4.15;;
52124;SDS011;38119;52.710;6.398;2023-08-06T14:10:00;8.35;;;4.60;;
52124;SDS011;38119;52.710;6.398;2023-08-06T14:12:25;7.05;;;4.78;;
52124;SDS011;38119;52.710;6.398;2023-08-06T14:14:51;9.13;;;5.50;;
52124;SDS011;38119;52.710;6.398;2023-08-06T14:17:17;7.22;;;5.13;;
52124;SDS011;38119;52.710;6.398;2023-08-06T14:19:42;8.70;;;4.90;;
52124;SDS011;38119;52.710;6.398;2023-08-06T14:22:08;8.23;;;5.25;;
52124;SDS011;38119;52.710;6.398;2023-08-06T14:24:34;7.68;;;5.35;;
52124;SDS011;38119;52.710;6.398;2023-08-06T14:26:59;7.18;;;5.88;;
52124;SDS011;38119;52.710;6.398;2023-08-06T14:29:25;7.40;;;6.15;;
52124;SDS011;38119;52.710;6.398;2023-08-06T14:31:50;9.20;;;7.50;;
52124;SDS011;38119;52.710;6.398;2023-08-06T14:34:16;10.23;;;7.40;;
52124;SDS011;38119;52.710;6.398;2023-08-06T14:36:42;9.23;;;7.22;;
52124;SDS011;38119;52.710;6.398;2023-08-06T14:39:07;10.30;;;6.80;;
52124;SDS011;38119;52.710;6.398;2023-08-06T14:41:33;9.13;;;6.03;;
52124;SDS011;38119;52.710;6.398;2023-08-06T14:43:58;7.53;;;5.50;;
52124;SDS011;38119;52.710;6.398;2023-08-06T14:46:24;7.45;;;5.70;;
52124;SDS011;38119;52.710;6.398;2023-08-06T14:48:50;7.35;;;5.68;;
52124;SDS011;38119;52.710;6.398;2023-08-06T14:51:16;7.88;;;5.03;;
52124;SDS011;38119;52.710;6.398;2023-08-06T14:53:44;6.55;;;4.90;;
52124;SDS011;38119;52.710;6.398;2023-08-06T14:56:10;5.47;;;4.32;;
52124;SDS011;38119;52.710;6.398;2023-08-06T14:58:35;7.97;;;4.82;;